• Join FlightAware (Why Join?)
  • Login
  • US Flag 
12:03AM EDT


 

Airport Tracker/Info


-or-


 

Live Flight TrackerFlight Track Log ✈ N830QS ✈ 16-Oct-2013 ✈ KORL - KMIA

Flight Track Log - Related Links

Times and Time Zones

All times are in EDT time to prevent confusion due to time zone crossing. See the N830QS flight status page for this flight to view local times or setup timezone preferences in your user account.

Time Position Orientation Groundspeed Altitude Reporting Facility
EDT Latitude Longitude Course Direction KTS MPH feet Rate Location/Type
08:47AM 28.5500 -81.3167 53° Northeast 155 178 800  Level Orlando TRACON
08:48AM 28.5833 -81.2667 53° Northeast 216 249 2,100 1,440 Climbing Orlando TRACON
08:49AM 28.6000 -81.2000 74° East 246 283 3,800 2,160 Climbing Orlando TRACON
08:50AM 28.5667 -81.1167 114° Southeast 269 310 6,500 2,520 Climbing Orlando TRACON
08:52AM 28.4328 -81.0067 144° Southeast 307 353 11,800 2,220 Climbing Miami Center
08:53AM 28.3489 -80.9469 148° Southeast 333 383 13,500 1,500 Climbing Miami Center
08:54AM 28.2719 -80.8594 135° Southeast 359 413 14,900 720 Climbing Miami Center
08:55AM 28.2136 -80.7819 130° Southeast 364 419 15,000  Climbing Miami Center
08:56AM 28.1411 -80.6853 130° Southeast 364 419 15,000  Level Miami Center
08:57AM 28.0614 -80.6214 145° Southeast 364 419 15,000  Level Miami Center
08:58AM 27.9622 -80.5853 162° South 365 420 15,000  Level Miami Center
08:59AM 27.8692 -80.5539 163° South 377 434 15,000  Level Miami Center
09:00AM 27.7697 -80.5203 163° South 377 434 15,100  Climbing Miami Center
09:01AM 27.6622 -80.4839 163° South 372 428 15,100  Level Miami Center
09:02AM 27.5650 -80.4411 159° South 378 435 15,100  Level Miami Center
09:03AM 27.4636 -80.4028 161° South 378 435 15,100  Level Miami Center
09:04AM 27.3728 -80.3650 160° South 383 441 15,100  Level Miami Center
09:05AM 27.2736 -80.3244 160° South 383 441 15,100  Level Miami Center
09:06AM 27.1658 -80.2817 161° South 383 441 15,100  Level Miami Center
09:07AM 27.0667 -80.2436 161° South 383 441 15,100 -60 Level Miami Center
09:08AM 26.9694 -80.2036 160° South 383 441 15,000 -60 Descending Miami Center
09:09AM 26.8806 -80.1683 161° South 383 441 15,000  Level Miami Center
09:10AM 26.7708 -80.1258 161° South 383 441 15,000  Level Miami Center
09:11AM 26.6692 -80.0881 162° South 383 441 15,000  Level Miami Center
09:11AM 26.6214 -80.0797 171° South 383 441 15,000 -420 Level Miami Center
09:12AM 26.5653 -80.0689 170° South 383 441 14,600 -1,260 Descending Miami Center
09:12AM 26.4944 -80.0600 174° South 369 425 13,500 -1,500 Descending Miami Center
09:13AM 26.4736 -80.0525 162° South 371 427 13,100 -540 Descending Miami Center
09:13AM 26.3967 -80.0411 172° South 360 414 13,000 -120 Descending Miami Center
09:14AM 26.3633 -80.0333 168° South 371 427 13,000 -900 Level Miami Center
09:14AM 26.3050 -80.0247 172° South 359 413 12,200 -1,320 Descending Miami Center
09:15AM 26.2758 -80.0194 171° South 371 427 11,700 -1,500 Descending Miami Center
09:15AM 26.2111 -80.0269 186° South 336 387 10,700 -1,620 Descending Miami Center
09:16AM 26.1878 -80.0356 198° South 358 412 10,100 -720 Descending Miami Center
09:16AM 26.1206 -80.0522 193° South 324 373 10,000 -240 Descending Miami Center
09:17AM 26.0975 -80.0564 189° South 339 390 9,900 -720 Descending Miami Center
09:17AM 26.0386 -80.0733 194° South 288 331 9,300 -1,200 Descending Miami Center
09:18AM 26.0197 -80.0819 202° Southwest 316 364 8,700 -1,440 Descending Miami Center
09:18AM 25.9692 -80.0969 195° South 277 319 8,000 -720 Descending Miami Center
09:19AM 25.9542 -80.1172 231° Southwest 291 335 8,000  Level Miami Center
09:19AM 25.9239 -80.1650 235° Southwest 256 295 8,000  Level Miami Center
09:20AM 25.9172 -80.1856 250° West 271 312 8,000  Level Miami Center
09:20AM 25.8972 -80.2358 246° West 252 290 8,000 -120 Level Miami Center
09:21AM 25.8925 -80.2586 257° West 253 291 7,900 -1,380 Descending Miami Center
09:21AM 25.8806 -80.3183 257° West 239 275 6,500 -1,980 Descending Miami Center
09:22AM 25.8750 -80.3828 265° West 230 265 4,800 -1,920 Descending Miami Center
09:23AM 25.8583 -80.4608 257° West 237 273 2,600 -1,680 Descending Miami Center
09:24AM 25.8089 -80.4433 162° South 208 239 1,500 -600 Descending Miami Center
09:25AM 25.7953 -80.3967 108° East 161 185 1,500 -360 Level Miami Center
09:26AM 25.7964 -80.3483 89° East 152 175 800 -720 Descending Miami Center
09:28AM 25.7954 -80.2901 103° East  Level Estimated
09:35AM 25.7954 -80.2901 103° East  Level Estimated
09:36AM 25.7954 -80.2901 103° East  Level Estimated